createdAt,value
2022-10-12T00:00:52.699Z,80.30
2022-10-12T00:03:21.308Z,80.30
2022-10-12T00:05:52.577Z,80.30
2022-10-12T00:08:21.062Z,80.00
2022-10-12T00:10:49.597Z,79.70
2022-10-12T00:13:18.081Z,79.40
2022-10-12T00:15:46.871Z,79.20
2022-10-12T00:18:15.369Z,78.90
2022-10-12T00:20:43.879Z,78.80
2022-10-12T00:23:12.509Z,78.90
2022-10-12T00:25:41.831Z,78.80
2022-10-12T00:28:10.430Z,79.10
2022-10-12T00:30:41.376Z,78.50
2022-10-12T00:33:09.886Z,78.70
2022-10-12T00:35:38.377Z,78.90
2022-10-12T00:38:09.498Z,79.10
2022-10-12T00:40:37.964Z,79.00
2022-10-12T00:43:06.473Z,79.80
2022-10-12T00:45:35.011Z,79.50
2022-10-12T00:48:03.581Z,78.10
2022-10-12T00:50:34.059Z,78.40
2022-10-12T00:53:15.406Z,77.20
2022-10-12T00:55:53.832Z,77.80
2022-10-12T00:58:24.393Z,78.10
2022-10-12T01:00:53.099Z,78.80
2022-10-12T01:03:24.479Z,78.00
2022-10-12T01:05:53.065Z,78.50
2022-10-12T01:08:21.946Z,76.40
2022-10-12T01:10:50.479Z,76.80
2022-10-12T01:13:19.529Z,76.60
2022-10-12T01:15:55.086Z,78.40
2022-10-12T01:18:28.090Z,78.00
2022-10-12T01:20:59.580Z,76.30
2022-10-12T01:23:33.947Z,75.60
2022-10-12T01:26:05.301Z,75.30
2022-10-12T01:28:33.839Z,74.90
2022-10-12T01:31:06.384Z,75.70
2022-10-12T01:33:40.394Z,74.10
2022-10-12T01:36:13.781Z,76.70
2022-10-12T01:38:56.281Z,75.40
2022-10-12T01:41:38.302Z,75.10
2022-10-12T01:44:07.017Z,75.20
2022-10-12T01:46:35.523Z,77.00
2022-10-12T01:49:04.171Z,74.20
2022-10-12T01:51:35.651Z,76.10
2022-10-12T01:54:13.289Z,73.70
2022-10-12T01:56:45.169Z,76.00
2022-10-12T01:59:28.147Z,73.10
2022-10-12T02:02:05.281Z,74.00
2022-10-12T02:04:44.643Z,73.20
2022-10-12T02:07:16.190Z,72.50
2022-10-12T02:09:45.251Z,72.70
2022-10-12T02:12:20.248Z,71.30
2022-10-12T02:14:51.846Z,72.10
2022-10-12T02:17:22.263Z,73.20
2022-10-12T02:19:55.652Z,72.60
2022-10-12T02:22:26.782Z,73.10
2022-10-12T02:24:58.699Z,71.20
2022-10-12T02:27:28.017Z,67.80
2022-10-12T02:29:56.993Z,71.30
2022-10-12T02:32:30.717Z,68.40
2022-10-12T02:35:10.632Z,69.60
2022-10-12T02:37:41.964Z,70.40
2022-10-12T02:40:29.004Z,73.10
2022-10-12T02:43:10.251Z,71.00
2022-10-12T02:45:41.447Z,71.40
2022-10-12T02:48:11.234Z,72.90
2022-10-12T02:50:39.918Z,73.60
2022-10-12T02:53:09.005Z,72.70
2022-10-12T02:55:40.994Z,74.50
2022-10-12T02:58:09.485Z,72.60
2022-10-12T03:00:38.154Z,72.60
2022-10-12T03:03:06.692Z,73.60
2022-10-12T03:05:35.266Z,72.00
2022-10-12T03:08:03.811Z,72.20
2022-10-12T03:10:32.383Z,72.70
2022-10-12T03:13:00.869Z,72.40
2022-10-12T03:15:29.420Z,71.00
2022-10-12T03:17:57.944Z,72.70
2022-10-12T03:20:26.616Z,71.60
2022-10-12T03:22:55.111Z,69.50
2022-10-12T03:25:23.981Z,68.70
2022-10-12T03:27:52.468Z,71.30
2022-10-12T03:30:21.025Z,72.40
2022-10-12T03:32:49.734Z,68.50
2022-10-12T03:35:18.828Z,72.10
2022-10-12T03:37:47.344Z,71.10
2022-10-12T03:40:16.075Z,71.90
2022-10-12T03:42:44.551Z,71.30
2022-10-12T03:45:13.562Z,70.20
2022-10-12T03:47:42.171Z,69.90
2022-10-12T03:50:10.911Z,67.80
2022-10-12T03:52:39.429Z,70.30
2022-10-12T03:55:08.780Z,70.70
2022-10-12T03:57:37.463Z,70.70
2022-10-12T04:00:06.421Z,70.30
2022-10-12T04:02:34.959Z,70.30
2022-10-12T04:05:04.523Z,70.20
2022-10-12T04:07:32.992Z,69.90
2022-10-12T04:10:01.503Z,70.10
2022-10-12T04:12:29.975Z,70.10
2022-10-12T04:14:58.469Z,69.90
2022-10-12T04:17:27.012Z,69.80
2022-10-12T04:19:55.489Z,69.40
2022-10-12T04:22:25.836Z,69.20
2022-10-12T04:24:54.598Z,67.90
2022-10-12T04:27:23.104Z,69.10
2022-10-12T04:29:51.638Z,69.00
2022-10-12T04:32:20.507Z,68.30
2022-10-12T04:34:49.055Z,67.00
2022-10-12T04:37:17.524Z,68.00
2022-10-12T04:39:46.071Z,68.00
2022-10-12T04:42:14.531Z,67.70
2022-10-12T04:44:42.976Z,67.50
2022-10-12T04:47:11.544Z,68.00
2022-10-12T04:49:40.037Z,68.00
2022-10-12T04:52:08.550Z,67.60
2022-10-12T04:54:37.216Z,67.90
2022-10-12T04:57:05.747Z,66.30
2022-10-12T04:59:34.224Z,66.10
2022-10-12T05:02:02.782Z,67.30
2022-10-12T05:04:31.303Z,67.90
2022-10-12T05:06:59.856Z,68.20
2022-10-12T05:09:28.460Z,68.00
2022-10-12T05:11:56.947Z,68.00
2022-10-12T05:14:25.532Z,67.60
2022-10-12T05:16:54.108Z,66.40
2022-10-12T05:19:22.903Z,65.80
2022-10-12T05:21:51.471Z,65.90
2022-10-12T05:24:19.998Z,65.30
2022-10-12T05:26:48.460Z,66.40
2022-10-12T05:29:16.979Z,66.50
2022-10-12T05:31:45.490Z,66.20
2022-10-12T05:34:13.997Z,65.80
2022-10-12T05:36:43.647Z,65.20
2022-10-12T05:39:12.408Z,65.30
2022-10-12T05:41:40.899Z,65.00
2022-10-12T05:44:09.460Z,65.60
2022-10-12T05:46:37.968Z,65.90
2022-10-12T05:49:06.688Z,65.40
2022-10-12T05:51:35.177Z,65.20
2022-10-12T05:54:03.800Z,65.30
2022-10-12T05:56:32.502Z,64.60
2022-10-12T05:59:00.967Z,65.50
2022-10-12T06:01:29.529Z,65.90
2022-10-12T06:03:58.049Z,66.10
2022-10-12T06:06:26.645Z,65.20
2022-10-12T06:08:55.121Z,65.60
2022-10-12T06:11:23.620Z,65.90
2022-10-12T06:13:52.232Z,65.10
2022-10-12T06:16:20.774Z,65.90
2022-10-12T06:18:49.263Z,65.80
2022-10-12T06:21:34.243Z,63.20
2022-10-12T06:24:03.535Z,64.00
2022-10-12T06:26:32.026Z,65.20
2022-10-12T06:29:01.831Z,63.90
2022-10-12T06:31:30.564Z,65.70
2022-10-12T06:33:59.065Z,65.20
2022-10-12T06:36:27.620Z,66.40
2022-10-12T06:38:56.620Z,66.10
2022-10-12T06:41:25.103Z,64.40
2022-10-12T06:43:53.748Z,65.10
2022-10-12T06:46:22.473Z,65.20
2022-10-12T06:48:51.019Z,61.90
2022-10-12T06:51:19.942Z,62.00
2022-10-12T06:53:48.475Z,65.50
2022-10-12T06:56:16.938Z,64.00
2022-10-12T06:58:45.427Z,63.20
2022-10-12T07:01:14.183Z,63.60
2022-10-12T07:03:42.715Z,65.40
2022-10-12T07:06:12.674Z,64.10
2022-10-12T07:08:42.399Z,63.40
2022-10-12T07:11:12.201Z,64.80
2022-10-12T07:13:40.734Z,64.00
2022-10-12T07:16:09.423Z,64.30
2022-10-12T07:18:38.023Z,61.00
2022-10-12T07:21:06.545Z,61.40
2022-10-12T07:23:35.805Z,62.90
2022-10-12T07:26:04.306Z,63.20
2022-10-12T07:28:32.862Z,63.40
2022-10-12T07:31:07.048Z,61.50
2022-10-12T07:33:35.955Z,62.10
2022-10-12T07:36:21.939Z,62.70
2022-10-12T07:38:51.228Z,63.30
2022-10-12T07:41:20.229Z,63.80
2022-10-12T07:43:48.700Z,64.00
2022-10-12T07:46:17.279Z,64.40
2022-10-12T07:48:50.050Z,61.70
2022-10-12T07:51:19.345Z,64.70
2022-10-12T07:53:48.689Z,64.20
2022-10-12T07:56:17.280Z,64.60
2022-10-12T07:58:53.002Z,64.00
2022-10-12T08:01:22.288Z,62.70
2022-10-12T08:03:50.983Z,63.80
2022-10-12T08:06:20.872Z,64.20
2022-10-12T08:08:49.661Z,59.60
2022-10-12T08:11:18.281Z,60.70
2022-10-12T08:13:46.846Z,62.90
2022-10-12T08:16:16.601Z,64.10
2022-10-12T08:18:45.654Z,61.20
2022-10-12T08:21:15.352Z,63.90
2022-10-12T08:23:47.015Z,64.10
2022-10-12T08:26:17.000Z,63.10
2022-10-12T08:28:46.073Z,63.00
2022-10-12T08:31:15.764Z,63.30
2022-10-12T08:33:44.335Z,63.90
2022-10-12T08:36:13.254Z,59.80
2022-10-12T08:38:41.830Z,60.00
2022-10-12T08:41:22.830Z,62.50
2022-10-12T08:43:54.113Z,63.40
2022-10-12T08:46:23.931Z,63.40
2022-10-12T08:49:03.071Z,63.20
2022-10-12T08:51:33.280Z,62.90
2022-10-12T08:54:08.959Z,62.80
2022-10-12T08:56:37.757Z,61.10
2022-10-12T08:59:06.659Z,62.20
2022-10-12T09:01:39.531Z,63.10
2022-10-12T09:04:11.259Z,63.30
2022-10-12T09:06:39.827Z,63.40
2022-10-12T09:09:11.356Z,62.50
2022-10-12T09:11:51.858Z,63.30
2022-10-12T09:14:27.603Z,63.20
2022-10-12T09:16:57.079Z,63.50
2022-10-12T09:19:36.374Z,63.40
2022-10-12T09:22:06.719Z,63.40
2022-10-12T09:24:37.298Z,63.40
2022-10-12T09:27:17.313Z,63.60
2022-10-12T09:29:49.975Z,63.20
2022-10-12T09:32:24.424Z,63.20
2022-10-12T09:34:52.967Z,63.30
2022-10-12T09:37:25.027Z,63.30
2022-10-12T09:39:53.718Z,63.30
2022-10-12T09:42:22.403Z,63.50
2022-10-12T09:44:52.862Z,63.60
2022-10-12T09:47:28.150Z,63.20
2022-10-12T09:49:59.531Z,63.60
2022-10-12T09:52:37.071Z,63.70
2022-10-12T09:55:24.792Z,63.60
2022-10-12T09:57:58.285Z,63.90
2022-10-12T10:00:27.011Z,63.80
2022-10-12T10:02:55.901Z,63.90
2022-10-12T10:05:26.624Z,63.90
2022-10-12T10:08:13.838Z,64.10
2022-10-12T10:10:56.592Z,64.30
2022-10-12T10:13:29.703Z,63.90
2022-10-12T10:16:06.064Z,64.30
2022-10-12T10:18:34.649Z,64.50
2022-10-12T10:21:05.384Z,64.50
2022-10-12T10:23:37.785Z,64.50
2022-10-12T10:26:08.136Z,64.60
2022-10-12T10:28:38.462Z,64.40
2022-10-12T10:31:08.333Z,64.70
2022-10-12T10:33:37.411Z,65.00
2022-10-12T10:36:25.751Z,65.00
2022-10-12T10:39:06.333Z,65.10
2022-10-12T10:41:38.129Z,65.20
2022-10-12T10:44:07.979Z,65.20
2022-10-12T10:46:37.709Z,65.40
2022-10-12T10:49:08.323Z,65.50
2022-10-12T10:51:54.133Z,65.60
2022-10-12T10:54:25.779Z,65.80
2022-10-12T10:56:59.252Z,66.00
2022-10-12T10:59:46.425Z,66.00
2022-10-12T11:02:31.988Z,66.10
2022-10-12T11:05:06.326Z,66.20
2022-10-12T11:07:37.974Z,66.30
2022-10-12T11:10:10.419Z,66.40
2022-10-12T11:12:42.069Z,66.50
2022-10-12T11:15:22.532Z,66.60
2022-10-12T11:17:53.537Z,66.70
2022-10-12T11:20:40.172Z,66.80
2022-10-12T11:23:18.758Z,67.10
2022-10-12T11:25:56.332Z,67.30
2022-10-12T11:28:27.406Z,67.60
2022-10-12T11:30:56.055Z,67.80
2022-10-12T11:33:27.863Z,68.20
2022-10-12T11:36:03.127Z,68.50
2022-10-12T11:38:44.542Z,68.30
2022-10-12T11:44:09.087Z,67.90
2022-10-12T11:46:40.564Z,67.90
2022-10-12T11:49:09.087Z,67.90
2022-10-12T11:51:37.621Z,67.90
2022-10-12T11:54:13.174Z,67.80
2022-10-12T11:56:44.384Z,67.90
2022-10-12T11:59:24.061Z,67.80
2022-10-12T12:02:10.650Z,67.80
2022-10-12T12:04:43.898Z,67.80
2022-10-12T12:07:32.802Z,67.70
2022-10-12T12:10:01.327Z,67.60
2022-10-12T12:12:30.651Z,67.80
2022-10-12T12:15:03.662Z,67.80
2022-10-12T12:17:35.480Z,67.90
2022-10-12T12:20:23.778Z,68.60
2022-10-12T12:22:54.296Z,68.80
2022-10-12T12:25:33.784Z,69.10
2022-10-12T12:28:22.507Z,69.70
2022-10-12T12:30:59.295Z,69.60
2022-10-12T12:33:33.544Z,69.70
2022-10-12T12:36:03.688Z,70.00
2022-10-12T12:38:33.958Z,70.20
2022-10-12T12:41:02.489Z,69.80
2022-10-12T12:43:30.997Z,69.90
2022-10-12T12:46:03.905Z,69.80
2022-10-12T12:48:41.993Z,69.60
2022-10-12T12:51:12.565Z,69.60
2022-10-12T12:53:54.033Z,69.70
2022-10-12T12:56:28.367Z,69.70
2022-10-12T12:59:03.698Z,69.60
2022-10-12T13:01:35.427Z,69.70
2022-10-12T13:04:16.335Z,69.70
2022-10-12T13:06:44.862Z,69.70
2022-10-12T13:09:16.151Z,69.80
2022-10-12T13:11:53.567Z,69.70
2022-10-12T13:14:44.120Z,69.60
2022-10-12T13:17:33.856Z,69.60
2022-10-12T13:20:08.706Z,69.60
2022-10-12T13:22:37.388Z,69.50
2022-10-12T13:25:08.246Z,69.40
2022-10-12T13:27:47.074Z,69.40
2022-10-12T13:30:30.012Z,69.30
2022-10-12T13:33:03.733Z,69.30
2022-10-12T13:35:36.764Z,69.10
2022-10-12T13:38:07.094Z,69.30
2022-10-12T13:40:35.573Z,69.10
2022-10-12T13:43:21.830Z,68.90
2022-10-12T13:45:50.954Z,68.90
2022-10-12T13:48:46.548Z,69.10
2022-10-12T13:51:26.891Z,69.10
2022-10-12T13:53:55.654Z,69.90
2022-10-12T13:56:29.327Z,68.90
2022-10-12T13:59:05.531Z,68.60
2022-10-12T14:01:48.623Z,68.60
2022-10-12T14:04:17.361Z,68.90
2022-10-12T14:06:48.844Z,69.30
2022-10-12T14:09:19.847Z,69.10
2022-10-12T14:11:49.045Z,69.10
2022-10-12T14:14:29.853Z,69.10
2022-10-12T14:16:58.415Z,69.20
2022-10-12T14:19:35.760Z,69.50
2022-10-12T14:22:04.732Z,69.50
2022-10-12T14:24:34.052Z,69.60
2022-10-12T14:27:03.580Z,69.40
2022-10-12T14:29:42.526Z,69.50
2022-10-12T14:32:14.212Z,69.60
2022-10-12T14:34:42.751Z,69.50
2022-10-12T14:37:11.276Z,69.30
2022-10-12T14:39:39.845Z,69.50
2022-10-12T14:42:23.750Z,69.20
2022-10-12T14:44:52.426Z,69.50
2022-10-12T14:47:20.903Z,69.30
2022-10-12T14:49:50.547Z,69.10
2022-10-12T14:52:21.756Z,69.00
2022-10-12T14:54:57.727Z,69.00
2022-10-12T14:57:27.175Z,69.30
2022-10-12T14:59:55.667Z,69.20
2022-10-12T15:02:25.801Z,69.20
2022-10-12T15:04:55.342Z,69.50
2022-10-12T15:07:34.002Z,69.60
2022-10-12T15:10:02.671Z,69.80
2022-10-12T15:12:36.205Z,69.80
2022-10-12T15:15:16.391Z,69.90
2022-10-12T15:17:44.876Z,70.00
2022-10-12T15:20:13.436Z,70.10
2022-10-12T15:22:41.973Z,70.30
2022-10-12T15:25:18.163Z,70.40
2022-10-12T15:27:46.944Z,70.40
2022-10-12T15:30:15.833Z,70.50
2022-10-12T15:32:44.600Z,70.60
2022-10-12T15:35:26.960Z,70.50
2022-10-12T15:37:57.496Z,70.70
2022-10-12T15:40:26.347Z,71.00
2022-10-12T15:42:54.930Z,71.10
2022-10-12T15:45:34.040Z,71.40
2022-10-12T15:48:02.858Z,71.80
2022-10-12T15:50:36.409Z,71.80
2022-10-12T15:53:05.287Z,71.80
2022-10-12T15:55:33.840Z,72.20
2022-10-12T15:58:02.368Z,72.60
2022-10-12T16:00:33.834Z,72.70
2022-10-12T16:03:02.896Z,72.50
2022-10-12T16:05:38.211Z,72.70
2022-10-12T16:08:07.147Z,72.60
2022-10-12T16:10:38.818Z,72.30
2022-10-12T16:13:08.331Z,72.10
2022-10-12T16:15:37.478Z,72.00
2022-10-12T16:18:06.838Z,72.20
2022-10-12T16:20:38.250Z,72.40
2022-10-12T16:23:08.652Z,72.60
2022-10-12T16:25:37.411Z,72.30
2022-10-12T16:28:05.939Z,72.30
2022-10-12T16:30:34.499Z,72.40
2022-10-12T16:33:03.052Z,72.90
2022-10-12T16:35:31.565Z,72.90
2022-10-12T16:38:00.307Z,72.10
2022-10-12T16:40:28.820Z,72.70
2022-10-12T16:42:57.449Z,72.40
2022-10-12T16:45:26.812Z,72.50
2022-10-12T16:47:55.392Z,72.60
2022-10-12T16:50:24.865Z,72.80
2022-10-12T16:52:53.791Z,72.50
2022-10-12T16:55:22.601Z,72.70
2022-10-12T16:57:51.079Z,73.00
2022-10-12T17:00:20.581Z,73.10
2022-10-12T17:02:51.177Z,73.10
2022-10-12T17:05:20.684Z,73.20
2022-10-12T17:07:49.166Z,73.40
2022-10-12T17:10:17.726Z,73.40
2022-10-12T17:12:47.021Z,73.20
2022-10-12T17:15:15.521Z,73.00
2022-10-12T17:17:43.986Z,73.40
2022-10-12T17:20:12.719Z,73.20
2022-10-12T17:22:41.200Z,73.40
2022-10-12T17:25:10.487Z,73.50
2022-10-12T17:27:39.464Z,73.70
2022-10-12T17:30:08.288Z,73.20
2022-10-12T17:32:38.956Z,73.40
2022-10-12T17:35:07.703Z,73.60
2022-10-12T17:37:36.232Z,73.60
2022-10-12T17:40:05.331Z,73.20
2022-10-12T17:42:33.872Z,73.10
2022-10-12T17:45:02.393Z,73.40
2022-10-12T17:47:30.982Z,73.40
2022-10-12T17:49:59.507Z,73.40
2022-10-12T17:52:28.024Z,73.50
2022-10-12T17:54:56.659Z,73.60
2022-10-12T17:57:25.186Z,73.60
2022-10-12T17:59:53.635Z,73.20
2022-10-12T18:02:22.385Z,73.60
2022-10-12T18:04:50.970Z,74.00
2022-10-12T18:07:19.847Z,74.30
2022-10-12T18:09:48.746Z,74.10
2022-10-12T18:12:17.553Z,74.40
2022-10-12T18:14:46.300Z,74.90
2022-10-12T18:17:15.225Z,74.60
2022-10-12T18:19:43.795Z,74.80
2022-10-12T18:22:12.272Z,74.90
2022-10-12T18:24:41.450Z,75.60
2022-10-12T18:27:09.975Z,75.70
2022-10-12T18:29:38.464Z,75.40
2022-10-12T18:32:07.874Z,75.20
2022-10-12T18:34:36.966Z,75.70
2022-10-12T18:37:06.017Z,75.40
2022-10-12T18:39:34.814Z,75.20
2022-10-12T18:42:03.363Z,75.50
2022-10-12T18:44:31.858Z,75.30
2022-10-12T18:47:00.457Z,74.80
2022-10-12T18:49:29.264Z,75.00
2022-10-12T18:51:57.748Z,74.50
2022-10-12T18:54:26.292Z,75.60
2022-10-12T18:56:54.899Z,75.00
2022-10-12T18:59:23.454Z,75.20
2022-10-12T19:01:51.967Z,75.80
2022-10-12T19:04:22.378Z,75.10
2022-10-12T19:06:54.322Z,76.10
2022-10-12T19:09:25.496Z,76.40
2022-10-12T19:11:53.958Z,76.90
2022-10-12T19:14:22.436Z,77.00
2022-10-12T19:16:51.694Z,77.30
2022-10-12T19:19:21.629Z,77.60
2022-10-12T19:21:52.779Z,77.70
2022-10-12T19:24:22.272Z,76.80
2022-10-12T19:26:51.143Z,76.90
2022-10-12T19:29:19.646Z,77.70
2022-10-12T19:31:49.193Z,78.10
2022-10-12T19:34:19.411Z,78.40
2022-10-12T19:36:47.913Z,79.20
2022-10-12T19:39:18.067Z,79.10
2022-10-12T19:41:47.007Z,79.30
2022-10-12T19:44:15.982Z,79.50
2022-10-12T19:46:48.306Z,80.10
2022-10-12T19:49:18.320Z,79.80
2022-10-12T19:51:47.154Z,80.20
2022-10-12T19:54:16.652Z,79.80
2022-10-12T19:56:45.115Z,79.90
2022-10-12T19:59:13.737Z,80.50
2022-10-12T20:01:42.335Z,81.10
2022-10-12T20:04:12.924Z,80.50
2022-10-12T20:06:42.011Z,80.60
2022-10-12T20:09:11.243Z,80.70
2022-10-12T20:11:39.781Z,80.80
2022-10-12T20:14:08.634Z,81.00
2022-10-12T20:16:39.502Z,81.20
2022-10-12T20:19:08.195Z,80.80
2022-10-12T20:21:37.716Z,79.60
2022-10-12T20:24:07.834Z,80.20
2022-10-12T20:26:36.309Z,80.30
2022-10-12T20:29:05.162Z,79.90
2022-10-12T20:31:33.770Z,79.60
2022-10-12T20:34:02.241Z,79.40
2022-10-12T20:36:31.819Z,79.10
2022-10-12T20:39:00.496Z,79.60
2022-10-12T20:41:29.408Z,79.70
2022-10-12T20:43:58.739Z,79.60
2022-10-12T20:46:27.843Z,79.00
2022-10-12T20:49:00.347Z,79.50
2022-10-12T20:51:30.381Z,79.70
2022-10-12T20:54:01.492Z,80.80
2022-10-12T20:56:30.869Z,79.30
2022-10-12T20:58:59.522Z,79.00
2022-10-12T21:01:29.447Z,79.00
2022-10-12T21:03:58.333Z,78.20
2022-10-12T21:06:27.085Z,79.70
2022-10-12T21:08:56.800Z,78.50
2022-10-12T21:11:25.645Z,79.40
2022-10-12T21:13:54.174Z,79.60
2022-10-12T21:16:22.806Z,78.90
2022-10-12T21:18:54.248Z,80.00
2022-10-12T21:21:22.845Z,80.60
2022-10-12T21:23:58.728Z,80.40
2022-10-12T21:26:28.507Z,79.60
2022-10-12T21:28:57.159Z,79.10
2022-10-12T21:31:31.003Z,79.80
2022-10-12T21:34:02.986Z,79.60
2022-10-12T21:36:31.903Z,78.70
2022-10-12T21:39:00.487Z,78.80
2022-10-12T21:41:29.765Z,78.70
2022-10-12T21:43:58.831Z,78.70
2022-10-12T21:46:28.987Z,78.40
2022-10-12T21:48:57.545Z,79.20
2022-10-12T21:51:26.536Z,78.50
2022-10-12T21:53:55.087Z,78.40
2022-10-12T21:56:24.544Z,77.90
2022-10-12T21:58:54.004Z,78.40
2022-10-12T22:01:23.619Z,78.70
2022-10-12T22:03:56.394Z,78.90
2022-10-12T22:06:26.080Z,79.10
2022-10-12T22:08:55.834Z,79.10
2022-10-12T22:11:24.558Z,78.60
2022-10-12T22:13:53.268Z,78.70
2022-10-12T22:16:30.299Z,78.90
2022-10-12T22:19:02.249Z,79.00
2022-10-12T22:21:31.461Z,78.70
2022-10-12T22:24:01.507Z,79.10
2022-10-12T22:26:30.400Z,78.60
2022-10-12T22:28:59.162Z,78.30
2022-10-12T22:31:27.742Z,78.00
2022-10-12T22:33:56.499Z,78.60
2022-10-12T22:36:25.314Z,78.70
2022-10-12T22:38:56.398Z,78.90
2022-10-12T22:41:25.259Z,78.80
2022-10-12T22:43:55.418Z,78.80
2022-10-12T22:46:25.007Z,78.60
2022-10-12T22:48:53.984Z,78.30
2022-10-12T22:51:27.987Z,78.30
2022-10-12T22:53:56.463Z,78.10
2022-10-12T22:56:24.971Z,78.20
2022-10-12T22:58:59.633Z,78.00
2022-10-12T23:01:28.819Z,77.80
2022-10-12T23:03:57.715Z,77.80
2022-10-12T23:06:26.741Z,77.80
2022-10-12T23:08:55.262Z,77.80
2022-10-12T23:11:25.941Z,77.70
2022-10-12T23:13:55.495Z,78.10
2022-10-12T23:16:25.415Z,78.30
2022-10-12T23:18:59.562Z,77.90
2022-10-12T23:21:28.938Z,78.00
2022-10-12T23:23:57.686Z,77.70
2022-10-12T23:26:27.005Z,77.90
2022-10-12T23:28:55.553Z,77.80
2022-10-12T23:31:25.836Z,77.70
2022-10-12T23:34:01.409Z,77.50
2022-10-12T23:36:30.342Z,77.40
2022-10-12T23:39:01.121Z,77.30
2022-10-12T23:41:29.754Z,77.20
2022-10-12T23:43:58.251Z,77.10
2022-10-12T23:46:26.729Z,77.10
2022-10-12T23:48:55.283Z,77.00
2022-10-12T23:51:30.160Z,77.00
2022-10-12T23:53:58.787Z,77.40
2022-10-12T23:56:27.247Z,77.40
2022-10-12T23:58:55.825Z,77.00
